Time;durP1;ratioP1;P1;durP2;ratioP2;P2;SDS_P1;SDS_P2;PMS_P1;PMS_P2;Temp;Humidity;BMP_temperature;BMP_pressure;BME280_temperature;BME280_humidity;BME280_pressure;Samples;Min_cycle;Max_cycle;Signal;HPM_P1;HPM_P2
2022/09/18 00:00:23;;;;;;;1.20;0.73;;;;;;;;;;6322231;28;20044;-79
2022/09/18 00:03:25;;;;;;;1.88;0.30;;;;;;;;;;6323707;28;20051;-79
2022/09/18 00:06:29;;;;;;;3.38;0.70;;;;;;;;;;6315873;28;20115;-78
2022/09/18 00:09:32;;;;;;;2.88;0.40;;;;;;;;;;6317780;27;20141;-78
2022/09/18 00:12:34;;;;;;;0.82;0.40;;;;;;;;;;6318345;28;20048;-79
2022/09/18 00:15:36;;;;;;;2.53;0.82;;;;;;;;;;6319185;28;20259;-81
2022/09/18 00:18:38;;;;;;;0.98;0.45;;;;;;;;;;6320335;28;20246;-80
2022/09/18 00:21:41;;;;;;;1.88;0.50;;;;;;;;;;6318408;28;20052;-78
2022/09/18 00:24:44;;;;;;;1.77;0.40;;;;;;;;;;6320057;28;20160;-79
2022/09/18 00:27:45;;;;;;;2.73;0.57;;;;;;;;;;6318707;28;20040;-80
2022/09/18 00:30:47;;;;;;;5.88;1.05;;;;;;;;;;6321259;28;20469;-80
2022/09/18 00:33:49;;;;;;;1.48;0.57;;;;;;;;;;6320036;28;20339;-80
2022/09/18 00:36:50;;;;;;;1.88;0.85;;;;;;;;;;6319917;28;20055;-79
2022/09/18 00:39:53;;;;;;;1.08;0.50;;;;;;;;;;6315212;28;20066;-80
2022/09/18 00:42:55;;;;;;;1.33;0.28;;;;;;;;;;6317797;28;20044;-75
2022/09/18 00:45:58;;;;;;;1.52;0.45;;;;;;;;;;6318334;28;20224;-78
2022/09/18 00:49:06;;;;;;;0.57;0.30;;;;;;;;;;6319136;28;20056;-80
2022/09/18 00:52:09;;;;;;;1.15;0.30;;;;;;;;;;6316053;28;20331;-80
2022/09/18 00:55:12;;;;;;;0.60;0.30;;;;;;;;;;6318059;28;20107;-79
2022/09/18 00:58:14;;;;;;;3.03;0.45;;;;;;;;;;6318240;27;20075;-74
2022/09/18 01:01:15;;;;;;;0.45;0.30;;;;;;;;;;6317018;28;20051;-78
2022/09/18 01:04:17;;;;;;;2.63;0.20;;;;;;;;;;6316767;28;20044;-76
2022/09/18 01:07:29;;;;;;;0.43;0.40;;;;;;;;;;6318436;28;20671;-79
2022/09/18 01:10:42;;;;;;;0.85;0.57;;;;;;;;;;6316977;28;20113;-77
2022/09/18 01:13:51;;;;;;;4.05;1.13;;;;;;;;;;6317239;28;20044;-81
2022/09/18 01:16:58;;;;;;;1.38;0.40;;;;;;;;;;6313465;28;20048;-77
2022/09/18 01:20:26;;;;;;;3.83;1.20;;;;;;;;;;6316758;28;20078;-77
2022/09/18 01:23:57;;;;;;;0.70;0.40;;;;;;;;;;6316889;28;20074;-80
2022/09/18 01:27:03;;;;;;;1.55;0.25;;;;;;;;;;6318631;28;20044;-80
2022/09/18 01:30:08;;;;;;;0.80;0.22;;;;;;;;;;6311120;28;20052;-77
2022/09/18 01:33:13;;;;;;;0.55;0.32;;;;;;;;;;6318428;28;20362;-82
2022/09/18 01:36:17;;;;;;;0.98;0.50;;;;;;;;;;6320267;28;20235;-81
2022/09/18 01:39:22;;;;;;;1.75;0.45;;;;;;;;;;6318833;28;20044;-78
2022/09/18 01:42:27;;;;;;;0.50;0.30;;;;;;;;;;6317428;28;20056;-73
2022/09/18 01:45:33;;;;;;;2.72;0.40;;;;;;;;;;6311112;28;20052;-81
2022/09/18 01:48:38;;;;;;;0.40;0.20;;;;;;;;;;6321845;28;20049;-80
2022/09/18 01:51:42;;;;;;;2.45;0.40;;;;;;;;;;6320645;28;20036;-77
2022/09/18 01:54:46;;;;;;;0.63;0.50;;;;;;;;;;6316991;28;20036;-82
2022/09/18 01:57:51;;;;;;;0.30;0.30;;;;;;;;;;6325677;28;20052;-79
2022/09/18 02:00:56;;;;;;;0.75;0.30;;;;;;;;;;6323865;28;20059;-80
2022/09/18 02:04:01;;;;;;;0.70;0.40;;;;;;;;;;6316169;28;20052;-81
2022/09/18 02:07:10;;;;;;;2.40;0.40;;;;;;;;;;6319336;27;20222;-83
2022/09/18 02:10:12;;;;;;;0.60;0.30;;;;;;;;;;6316956;28;20039;-81
2022/09/18 02:13:16;;;;;;;1.27;0.70;;;;;;;;;;6313500;28;20075;-80
2022/09/18 02:16:23;;;;;;;0.90;0.50;;;;;;;;;;6316528;28;20327;-82
2022/09/18 02:19:28;;;;;;;1.02;0.50;;;;;;;;;;6315611;28;20056;-77
2022/09/18 02:22:33;;;;;;;0.98;0.60;;;;;;;;;;6319849;28;20347;-78
2022/09/18 02:25:37;;;;;;;2.03;0.40;;;;;;;;;;6315248;28;20096;-79
2022/09/18 02:28:40;;;;;;;0.80;0.47;;;;;;;;;;6315308;28;20087;-80
2022/09/18 02:31:43;;;;;;;1.45;0.30;;;;;;;;;;6312823;28;20044;-75
2022/09/18 02:34:45;;;;;;;0.60;0.30;;;;;;;;;;6312458;28;20103;-82
2022/09/18 02:37:54;;;;;;;0.50;0.30;;;;;;;;;;6311505;28;20105;-79
2022/09/18 02:41:02;;;;;;;2.28;0.40;;;;;;;;;;6316636;28;20120;-77
2022/09/18 02:44:09;;;;;;;0.60;0.30;;;;;;;;;;6317455;28;20052;-81
2022/09/18 02:47:18;;;;;;;0.60;0.30;;;;;;;;;;6315893;28;20048;-79
2022/09/18 02:50:25;;;;;;;0.55;0.30;;;;;;;;;;6313069;28;20884;-82
2022/09/18 02:53:30;;;;;;;1.98;0.50;;;;;;;;;;6314359;28;20060;-77
2022/09/18 02:56:37;;;;;;;1.10;0.45;;;;;;;;;;6315277;28;20101;-75
2022/09/18 02:59:41;;;;;;;1.00;0.40;;;;;;;;;;6316420;28;20113;-82
2022/09/18 03:02:44;;;;;;;;;;;;;;;;;;6314847;28;20052;-81
2022/09/18 03:05:46;;;;;;;1.40;0.60;;;;;;;;;;6313496;28;19994;-80
2022/09/18 03:08:48;;;;;;;1.15;0.40;;;;;;;;;;6314993;28;20052;-80
2022/09/18 03:11:50;;;;;;;1.95;0.30;;;;;;;;;;6317790;28;20048;-80
2022/09/18 03:14:52;;;;;;;0.95;0.60;;;;;;;;;;6314993;28;20059;-81
2022/09/18 03:17:56;;;;;;;0.85;0.43;;;;;;;;;;6313613;28;20048;-80
2022/09/18 03:20:58;;;;;;;1.60;0.47;;;;;;;;;;6317860;28;20105;-75
2022/09/18 03:24:00;;;;;;;1.17;0.50;;;;;;;;;;6318841;28;20102;-79
2022/09/18 03:27:02;;;;;;;1.45;0.50;;;;;;;;;;6320309;28;20064;-81
2022/09/18 03:30:04;;;;;;;0.90;0.40;;;;;;;;;;6319921;28;20098;-79
2022/09/18 03:33:07;;;;;;;2.17;0.70;;;;;;;;;;6322002;28;20048;-78
2022/09/18 03:36:09;;;;;;;2.10;0.50;;;;;;;;;;6322444;28;20051;-82
2022/09/18 03:39:10;;;;;;;1.55;0.40;;;;;;;;;;6325872;28;20336;-82
2022/09/18 03:42:12;;;;;;;2.78;0.55;;;;;;;;;;6323556;28;20052;-74
2022/09/18 03:45:14;;;;;;;8.40;0.55;;;;;;;;;;6321576;28;20059;-80
2022/09/18 03:48:17;;;;;;;2.35;0.60;;;;;;;;;;6325480;28;20051;-80
2022/09/18 03:51:19;;;;;;;;;;;;;;;;;;6325539;27;20048;-81
2022/09/18 03:54:21;;;;;;;1.25;0.50;;;;;;;;;;6325074;28;19962;-80
2022/09/18 03:57:22;;;;;;;1.08;0.22;;;;;;;;;;6323752;28;20052;-80
2022/09/18 04:00:24;;;;;;;0.80;0.30;;;;;;;;;;6323610;28;20055;-80
2022/09/18 04:03:27;;;;;;;0.80;0.40;;;;;;;;;;6323230;28;20356;-81
2022/09/18 04:06:29;;;;;;;0.30;0.30;;;;;;;;;;6321613;28;20240;-80
2022/09/18 04:09:30;;;;;;;0.38;0.20;;;;;;;;;;6318370;28;20098;-77
2022/09/18 04:12:32;;;;;;;0.80;0.40;;;;;;;;;;6319382;28;20655;-82
2022/09/18 04:15:34;;;;;;;2.78;0.50;;;;;;;;;;6316973;28;20048;-81
2022/09/18 04:18:37;;;;;;;1.40;0.20;;;;;;;;;;6319063;28;20130;-83
2022/09/18 04:21:38;;;;;;;1.07;0.40;;;;;;;;;;6318203;28;20064;-78
2022/09/18 04:24:41;;;;;;;1.48;0.50;;;;;;;;;;6317231;28;20039;-78
2022/09/18 04:27:42;;;;;;;0.52;0.30;;;;;;;;;;6320679;28;20056;-79
2022/09/18 04:30:46;;;;;;;0.80;0.45;;;;;;;;;;6317353;28;20273;-74
2022/09/18 04:33:49;;;;;;;1.10;0.35;;;;;;;;;;6317545;28;20052;-75
2022/09/18 04:36:50;;;;;;;1.83;0.67;;;;;;;;;;6316513;28;21443;-78
2022/09/18 04:39:52;;;;;;;1.30;0.40;;;;;;;;;;6318653;28;20052;-82
2022/09/18 04:42:57;;;;;;;0.70;0.28;;;;;;;;;;6316128;28;20108;-75
2022/09/18 04:45:59;;;;;;;1.10;0.43;;;;;;;;;;6316840;28;20069;-80
2022/09/18 04:49:02;;;;;;;0.40;0.30;;;;;;;;;;6319619;28;20052;-81
2022/09/18 04:52:03;;;;;;;0.40;0.23;;;;;;;;;;6318194;28;20090;-81
2022/09/18 04:55:06;;;;;;;0.50;0.30;;;;;;;;;;6319474;28;20056;-79
2022/09/18 04:58:08;;;;;;;0.70;0.30;;;;;;;;;;6319404;28;20055;-78
2022/09/18 05:01:09;;;;;;;1.38;0.20;;;;;;;;;;6315178;28;20261;-80
2022/09/18 05:04:12;;;;;;;3.95;1.27;;;;;;;;;;6315970;28;20291;-77
2022/09/18 05:07:14;;;;;;;9.93;1.45;;;;;;;;;;6315120;28;20259;-80
2022/09/18 05:10:16;;;;;;;0.55;0.40;;;;;;;;;;6317554;28;20052;-79
2022/09/18 05:13:18;;;;;;;1.33;0.40;;;;;;;;;;6317821;28;20055;-79
2022/09/18 05:16:19;;;;;;;0.90;0.50;;;;;;;;;;6313376;28;20125;-82
2022/09/18 05:19:22;;;;;;;0.85;0.20;;;;;;;;;;6316904;28;20044;-77
2022/09/18 05:22:24;;;;;;;1.33;0.43;;;;;;;;;;6317770;28;20340;-81
2022/09/18 05:25:27;;;;;;;0.90;0.30;;;;;;;;;;6315468;28;20067;-80
2022/09/18 05:28:29;;;;;;;0.55;0.30;;;;;;;;;;6318003;28;20083;-80
2022/09/18 05:31:31;;;;;;;1.17;0.30;;;;;;;;;;6314996;28;20047;-82
2022/09/18 05:34:34;;;;;;;0.40;0.30;;;;;;;;;;6315682;28;20055;-82
2022/09/18 05:37:35;;;;;;;1.10;0.30;;;;;;;;;;6312153;28;20056;-80
2022/09/18 05:40:38;;;;;;;1.25;0.40;;;;;;;;;;6317963;28;20052;-81
2022/09/18 05:43:43;;;;;;;1.30;0.40;;;;;;;;;;6316941;28;20071;-79
2022/09/18 05:46:46;;;;;;;0.70;0.50;;;;;;;;;;6317539;28;20044;-83
2022/09/18 05:49:49;;;;;;;1.20;0.50;;;;;;;;;;6312058;28;20062;-81
2022/09/18 05:53:01;;;;;;;1.77;0.68;;;;;;;;;;6316733;28;20049;-81
2022/09/18 05:56:02;;;;;;;0.60;0.50;;;;;;;;;;6320861;28;20230;-80
2022/09/18 05:59:04;;;;;;;1.50;0.60;;;;;;;;;;6319130;28;20055;-81
2022/09/18 06:02:06;;;;;;;0.93;0.40;;;;;;;;;;6315539;28;20055;-78
2022/09/18 06:05:09;;;;;;;2.25;1.08;;;;;;;;;;6316545;28;20097;-80
2022/09/18 06:08:12;;;;;;;3.45;1.67;;;;;;;;;;6314950;28;20079;-82
2022/09/18 06:11:14;;;;;;;1.92;1.40;;;;;;;;;;6316615;28;20258;-82
2022/09/18 06:14:15;;;;;;;4.15;1.60;;;;;;;;;;6323327;28;20054;-83
2022/09/18 06:17:17;;;;;;;5.90;1.52;;;;;;;;;;6318722;28;20048;-81
2022/09/18 06:20:20;;;;;;;2.35;1.13;;;;;;;;;;6317186;28;20413;-83
2022/09/18 06:23:22;;;;;;;2.47;1.10;;;;;;;;;;6317260;28;20231;-86
2022/09/18 06:26:24;;;;;;;1.70;1.00;;;;;;;;;;6317598;28;20076;-78
2022/09/18 06:29:26;;;;;;;3.28;1.27;;;;;;;;;;6312320;28;20052;-81
2022/09/18 06:32:27;;;;;;;2.88;0.82;;;;;;;;;;6318033;28;20098;-74
2022/09/18 06:35:32;;;;;;;1.55;0.80;;;;;;;;;;6321529;27;20059;-75
2022/09/18 06:38:34;;;;;;;3.08;0.50;;;;;;;;;;6318534;28;20052;-80
2022/09/18 06:41:35;;;;;;;0.80;0.47;;;;;;;;;;6315201;28;20114;-78
2022/09/18 06:44:37;;;;;;;0.95;0.50;;;;;;;;;;6311736;28;20101;-76
2022/09/18 06:47:38;;;;;;;1.73;0.40;;;;;;;;;;6314768;27;20055;-74
2022/09/18 06:50:41;;;;;;;4.43;0.55;;;;;;;;;;6318073;28;20281;-78
2022/09/18 06:53:43;;;;;;;1.05;0.40;;;;;;;;;;6318410;28;21352;-80
2022/09/18 06:56:45;;;;;;;1.23;0.47;;;;;;;;;;6326676;28;20224;-79
2022/09/18 06:59:47;;;;;;;0.75;0.40;;;;;;;;;;6305642;28;20923;-76
2022/09/18 07:02:55;;;;;;;1.98;0.50;;;;;;;;;;6317404;28;20243;-79
2022/09/18 07:05:58;;;;;;;2.13;0.50;;;;;;;;;;6319034;28;20052;-82
2022/09/18 07:08:59;;;;;;;2.33;1.40;;;;;;;;;;6321062;28;20047;-80
2022/09/18 07:12:01;;;;;;;1.35;0.52;;;;;;;;;;6316561;27;20266;-81
2022/09/18 07:15:04;;;;;;;1.02;0.50;;;;;;;;;;6320649;28;20052;-80
2022/09/18 07:18:06;;;;;;;1.38;0.60;;;;;;;;;;6315794;28;20327;-80
2022/09/18 07:21:09;;;;;;;0.60;0.40;;;;;;;;;;6315817;28;20137;-79
2022/09/18 07:24:11;;;;;;;2.55;0.63;;;;;;;;;;6318842;28;20064;-78
2022/09/18 07:27:13;;;;;;;3.53;0.60;;;;;;;;;;6328998;28;20048;-80
2022/09/18 07:30:14;;;;;;;1.35;0.55;;;;;;;;;;6326692;28;20056;-77
2022/09/18 07:33:16;;;;;;;1.23;0.60;;;;;;;;;;6320481;28;20064;-70
2022/09/18 07:36:19;;;;;;;2.10;0.70;;;;;;;;;;6318702;28;20051;-75
2022/09/18 07:39:21;;;;;;;1.85;0.60;;;;;;;;;;6321324;28;20060;-72
2022/09/18 07:42:23;;;;;;;4.65;0.77;;;;;;;;;;6321216;28;20055;-74
2022/09/18 07:45:24;;;;;;;3.38;0.90;;;;;;;;;;6328959;28;20382;-72
2022/09/18 07:48:26;;;;;;;2.35;0.50;;;;;;;;;;6322098;28;20051;-70
2022/09/18 07:51:29;;;;;;;0.70;0.43;;;;;;;;;;6324202;27;20068;-71
2022/09/18 07:54:31;;;;;;;0.52;0.38;;;;;;;;;;6328168;28;20036;-70
2022/09/18 07:57:33;;;;;;;0.82;0.47;;;;;;;;;;6318269;28;20059;-72
2022/09/18 08:00:37;;;;;;;1.23;0.50;;;;;;;;;;6316827;28;20051;-71
2022/09/18 08:03:39;;;;;;;1.33;0.32;;;;;;;;;;6315731;28;20056;-73
2022/09/18 08:06:42;;;;;;;1.00;0.52;;;;;;;;;;6317601;28;20064;-71
2022/09/18 08:09:43;;;;;;;0.75;0.40;;;;;;;;;;6318284;28;20341;-72
2022/09/18 08:12:45;;;;;;;1.25;0.50;;;;;;;;;;6319384;28;20044;-78
2022/09/18 08:15:47;;;;;;;0.63;0.40;;;;;;;;;;6319448;28;20079;-72
2022/09/18 08:18:48;;;;;;;1.77;0.60;;;;;;;;;;6319131;28;20044;-74
2022/09/18 08:21:51;;;;;;;1.58;0.98;;;;;;;;;;6318560;28;20059;-73
2022/09/18 08:24:53;;;;;;;0.90;0.70;;;;;;;;;;6317680;28;20048;-76
2022/09/18 08:27:58;;;;;;;1.05;0.70;;;;;;;;;;6318032;27;20051;-71
2022/09/18 08:31:00;;;;;;;0.70;0.45;;;;;;;;;;6320005;28;20056;-72
2022/09/18 08:34:02;;;;;;;1.17;0.57;;;;;;;;;;6313775;28;20076;-72
2022/09/18 08:37:05;;;;;;;1.42;0.80;;;;;;;;;;6317473;28;20343;-73
2022/09/18 08:40:09;;;;;;;3.25;0.70;;;;;;;;;;6320404;28;20048;-74
2022/09/18 08:43:15;;;;;;;1.00;0.65;;;;;;;;;;6316604;28;20301;-73
2022/09/18 08:46:21;;;;;;;1.00;0.63;;;;;;;;;;6316796;28;20056;-71
2022/09/18 08:49:25;;;;;;;0.80;0.50;;;;;;;;;;6318019;27;20050;-72
2022/09/18 08:52:30;;;;;;;2.28;0.57;;;;;;;;;;6317839;28;20044;-73
2022/09/18 08:55:35;;;;;;;1.13;0.50;;;;;;;;;;6316248;28;20243;-71
2022/09/18 08:58:40;;;;;;;1.40;0.57;;;;;;;;;;6317945;28;20425;-71
2022/09/18 09:01:45;;;;;;;1.30;0.60;;;;;;;;;;6317633;28;20052;-70
2022/09/18 09:04:47;;;;;;;0.93;0.60;;;;;;;;;;6315259;28;20040;-71
2022/09/18 09:08:06;;;;;;;0.82;0.45;;;;;;;;;;6314862;28;20060;-71
2022/09/18 09:11:11;;;;;;;2.08;0.70;;;;;;;;;;6319145;28;20063;-71
2022/09/18 09:14:20;;;;;;;2.50;1.13;;;;;;;;;;6315990;28;20121;-70
2022/09/18 09:17:37;;;;;;;1.80;0.90;;;;;;;;;;6313757;28;20389;-71
2022/09/18 09:20:51;;;;;;;0.70;0.50;;;;;;;;;;6314522;27;20359;-72
2022/09/18 09:24:06;;;;;;;1.00;0.40;;;;;;;;;;6315418;28;20302;-71
2022/09/18 09:27:18;;;;;;;0.95;0.52;;;;;;;;;;6316527;27;20052;-71
2022/09/18 09:30:20;;;;;;;1.05;0.68;;;;;;;;;;6315989;28;20232;-71
2022/09/18 09:33:26;;;;;;;0.70;0.50;;;;;;;;;;6315183;28;20051;-71
2022/09/18 09:36:29;;;;;;;3.78;1.00;;;;;;;;;;6315063;28;20070;-71
2022/09/18 09:39:34;;;;;;;;;;;;;;;;;;6317242;28;20060;-71
2022/09/18 09:42:40;;;;;;;0.80;0.60;;;;;;;;;;6316642;27;19924;-70
2022/09/18 09:45:45;;;;;;;1.02;0.70;;;;;;;;;;6313385;28;20363;-73
2022/09/18 09:48:50;;;;;;;1.85;0.70;;;;;;;;;;6314445;28;20056;-75
2022/09/18 09:51:58;;;;;;;1.98;0.50;;;;;;;;;;6314473;28;20093;-68
2022/09/18 09:55:17;;;;;;;1.42;0.85;;;;;;;;;;6312868;28;20359;-71
2022/09/18 09:58:27;;;;;;;0.68;0.50;;;;;;;;;;6314739;28;20217;-73
2022/09/18 10:01:32;;;;;;;0.60;0.50;;;;;;;;;;6315505;28;20121;-72
2022/09/18 10:04:39;;;;;;;2.22;0.70;;;;;;;;;;6313756;28;20232;-72
2022/09/18 10:07:43;;;;;;;5.18;1.00;;;;;;;;;;6314525;28;22378;-67
2022/09/18 10:10:50;;;;;;;1.80;0.60;;;;;;;;;;6314602;28;20055;-70
2022/09/18 10:13:55;;;;;;;1.35;0.50;;;;;;;;;;6313577;28;20056;-71
2022/09/18 10:16:58;;;;;;;1.35;0.82;;;;;;;;;;6313234;28;20064;-71
2022/09/18 10:19:59;;;;;;;3.27;0.73;;;;;;;;;;6312673;28;20056;-73
2022/09/18 10:23:05;;;;;;;0.75;0.50;;;;;;;;;;6315819;28;20659;-71
2022/09/18 10:26:12;;;;;;;1.15;0.50;;;;;;;;;;6314569;28;20063;-72
2022/09/18 10:29:14;;;;;;;0.63;0.50;;;;;;;;;;6321509;28;20241;-69
2022/09/18 10:32:32;;;;;;;1.38;0.50;;;;;;;;;;6323152;28;20056;-70
2022/09/18 10:35:44;;;;;;;1.08;0.52;;;;;;;;;;6327752;28;20083;-72
2022/09/18 10:38:46;;;;;;;0.73;0.52;;;;;;;;;;6325054;28;20044;-73
2022/09/18 10:41:49;;;;;;;2.67;0.65;;;;;;;;;;6321475;28;20056;-73
2022/09/18 10:44:52;;;;;;;;;;;;;;;;;;6320425;28;20044;-72
2022/09/18 10:48:04;;;;;;;3.53;0.60;;;;;;;;;;6316693;28;19961;-72
2022/09/18 10:51:06;;;;;;;0.70;0.60;;;;;;;;;;6317332;28;20108;-74
2022/09/18 10:54:16;;;;;;;3.13;0.68;;;;;;;;;;6319303;28;20060;-73
2022/09/18 10:57:30;;;;;;;0.60;0.47;;;;;;;;;;6316496;28;20059;-71
2022/09/18 11:00:36;;;;;;;0.85;0.52;;;;;;;;;;6320541;28;20047;-71
2022/09/18 11:03:41;;;;;;;3.17;0.65;;;;;;;;;;6316337;28;20088;-74
2022/09/18 11:06:44;;;;;;;1.45;0.68;;;;;;;;;;6317561;27;20288;-74
2022/09/18 11:09:47;;;;;;;3.05;0.52;;;;;;;;;;6314193;28;20338;-74
2022/09/18 11:12:51;;;;;;;;;;;;;;;;;;6320899;28;20215;-67
2022/09/18 11:15:54;;;;;;;0.70;0.60;;;;;;;;;;6318350;28;19931;-74
2022/09/18 11:19:06;;;;;;;2.17;0.63;;;;;;;;;;6315417;28;20048;-71
2022/09/18 11:22:31;;;;;;;0.52;0.52;;;;;;;;;;6316476;28;20345;-74
2022/09/18 11:25:32;;;;;;;3.50;0.70;;;;;;;;;;6318972;28;20255;-69
2022/09/18 11:28:35;;;;;;;1.63;0.80;;;;;;;;;;6322104;28;20093;-71
2022/09/18 11:31:41;;;;;;;2.05;0.63;;;;;;;;;;6318956;28;20058;-69
2022/09/18 11:34:46;;;;;;;2.95;0.57;;;;;;;;;;6316065;28;20060;-70
2022/09/18 11:37:51;;;;;;;1.48;0.65;;;;;;;;;;6318687;28;20438;-69
2022/09/18 11:40:54;;;;;;;2.58;0.80;;;;;;;;;;6321361;28;20117;-75
2022/09/18 11:44:01;;;;;;;4.10;0.60;;;;;;;;;;6324002;28;20381;-73
2022/09/18 11:47:32;;;;;;;2.08;0.60;;;;;;;;;;6321978;28;20098;-73
2022/09/18 11:50:35;;;;;;;3.00;0.75;;;;;;;;;;6320818;28;20056;-71
2022/09/18 11:53:39;;;;;;;2.63;0.80;;;;;;;;;;6323593;28;20928;-69
2022/09/18 11:56:44;;;;;;;1.92;0.50;;;;;;;;;;6323647;28;20051;-66
2022/09/18 11:59:51;;;;;;;1.58;1.00;;;;;;;;;;6320988;28;20060;-74
2022/09/18 12:03:01;;;;;;;2.10;0.98;;;;;;;;;;6323841;28;20200;-69
2022/09/18 12:06:07;;;;;;;3.17;0.85;;;;;;;;;;6318970;28;20067;-69
2022/09/18 12:09:12;;;;;;;4.25;0.77;;;;;;;;;;6322828;28;20055;-73
2022/09/18 12:12:20;;;;;;;2.60;0.70;;;;;;;;;;6319688;28;20051;-74
2022/09/18 12:15:24;;;;;;;9.05;1.20;;;;;;;;;;6325328;28;20060;-71
2022/09/18 12:18:28;;;;;;;2.55;0.65;;;;;;;;;;6320405;28;20040;-70
2022/09/18 12:21:44;;;;;;;1.00;0.70;;;;;;;;;;6322543;28;20044;-70
2022/09/18 12:24:45;;;;;;;1.10;0.60;;;;;;;;;;6323247;28;20252;-75
2022/09/18 12:27:53;;;;;;;0.70;0.50;;;;;;;;;;6318204;28;20052;-70
2022/09/18 12:31:02;;;;;;;1.77;0.60;;;;;;;;;;6324235;28;20048;-70
2022/09/18 12:34:09;;;;;;;3.42;0.70;;;;;;;;;;6322671;28;20113;-69
2022/09/18 12:37:28;;;;;;;1.83;0.70;;;;;;;;;;6321623;28;20052;-69
2022/09/18 12:41:00;;;;;;;1.77;0.80;;;;;;;;;;6324303;28;20040;-69
2022/09/18 12:44:30;;;;;;;1.55;0.70;;;;;;;;;;6320969;28;20117;-68
2022/09/18 12:47:43;;;;;;;2.90;0.80;;;;;;;;;;6304290;28;20319;-68
2022/09/18 12:50:48;;;;;;;;;;;;;;;;;;6319394;28;20040;-68
2022/09/18 12:53:57;;;;;;;1.17;0.80;;;;;;;;;;6320275;28;20122;-70
2022/09/18 12:57:09;;;;;;;7.47;0.70;;;;;;;;;;6322904;28;20048;-69
2022/09/18 13:00:13;;;;;;;0.73;0.45;;;;;;;;;;6322522;28;20052;-70
2022/09/18 13:03:19;;;;;;;0.70;0.70;;;;;;;;;;6320871;28;20059;-70
2022/09/18 13:06:30;;;;;;;2.25;0.65;;;;;;;;;;6312472;28;20103;-70
2022/09/18 13:09:35;;;;;;;2.22;0.88;;;;;;;;;;6313910;28;20056;-69
2022/09/18 13:12:40;;;;;;;3.60;0.60;;;;;;;;;;6312864;28;20204;-70
2022/09/18 13:15:45;;;;;;;0.50;0.40;;;;;;;;;;6317647;28;20274;-71
2022/09/18 13:18:54;;;;;;;0.85;0.50;;;;;;;;;;6316462;28;20060;-70
2022/09/18 13:21:57;;;;;;;1.10;0.60;;;;;;;;;;6317764;28;20056;-68
2022/09/18 13:25:00;;;;;;;1.80;0.60;;;;;;;;;;6313029;28;20243;-71
2022/09/18 13:28:04;;;;;;;3.47;0.85;;;;;;;;;;6316008;28;20052;-71
2022/09/18 13:31:23;;;;;;;2.65;0.60;;;;;;;;;;6316173;28;20358;-69
2022/09/18 13:34:26;;;;;;;0.93;0.50;;;;;;;;;;6315358;28;20192;-70
2022/09/18 13:37:28;;;;;;;;;;;;;;;;;;6314057;28;20044;-70
2022/09/18 13:40:36;;;;;;;0.98;0.60;;;;;;;;;;6319952;28;19916;-70
2022/09/18 13:43:40;;;;;;;1.63;0.50;;;;;;;;;;6316819;28;20052;-70
2022/09/18 13:46:43;;;;;;;1.35;0.60;;;;;;;;;;6326629;28;20143;-70
2022/09/18 13:49:51;;;;;;;2.88;0.85;;;;;;;;;;6318403;28;20052;-70
2022/09/18 13:52:55;;;;;;;1.67;0.40;;;;;;;;;;6318017;28;20052;-71
2022/09/18 13:55:57;;;;;;;2.88;0.77;;;;;;;;;;6313394;28;20052;-68
2022/09/18 13:58:59;;;;;;;0.93;0.60;;;;;;;;;;6317352;28;20051;-69
2022/09/18 14:02:01;;;;;;;2.05;0.60;;;;;;;;;;6313195;28;20059;-69
2022/09/18 14:05:32;;;;;;;2.70;0.53;;;;;;;;;;6313970;28;20047;-69
2022/09/18 14:08:37;;;;;;;1.33;0.95;;;;;;;;;;6318693;28;20498;-70
2022/09/18 14:11:39;;;;;;;1.52;0.50;;;;;;;;;;6318695;28;20056;-69
2022/09/18 14:14:42;;;;;;;2.35;0.55;;;;;;;;;;6322554;28;20063;-69
2022/09/18 14:18:05;;;;;;;3.17;0.68;;;;;;;;;;6317435;28;20052;-69
2022/09/18 14:21:21;;;;;;;1.27;0.50;;;;;;;;;;6321507;28;20116;-72
2022/09/18 14:24:37;;;;;;;2.35;0.75;;;;;;;;;;6320519;27;20389;-72
2022/09/18 14:27:55;;;;;;;2.60;0.60;;;;;;;;;;6318425;28;20056;-73
2022/09/18 14:31:12;;;;;;;4.13;0.73;;;;;;;;;;6318030;28;20281;-71
2022/09/18 14:34:17;;;;;;;6.45;0.60;;;;;;;;;;6317935;28;20082;-73
2022/09/18 14:37:23;;;;;;;1.00;0.52;;;;;;;;;;6317797;28;20365;-75
2022/09/18 14:40:27;;;;;;;1.80;0.60;;;;;;;;;;6314517;28;20123;-72
2022/09/18 14:43:28;;;;;;;3.97;0.60;;;;;;;;;;6315492;27;20048;-72
2022/09/18 14:46:31;;;;;;;8.18;0.90;;;;;;;;;;6316317;28;20051;-69
2022/09/18 14:49:33;;;;;;;;;;;;;;;;;;6317070;28;20079;-70
2022/09/18 14:52:43;;;;;;;2.00;0.82;;;;;;;;;;6317722;28;19986;-70
2022/09/18 14:55:49;;;;;;;2.88;0.40;;;;;;;;;;6315549;28;20148;-73
2022/09/18 14:58:51;;;;;;;3.08;0.85;;;;;;;;;;6313890;28;20114;-71
2022/09/18 15:01:53;;;;;;;3.03;0.90;;;;;;;;;;6317217;28;20154;-71
2022/09/18 15:04:55;;;;;;;2.20;0.55;;;;;;;;;;6319499;28;20051;-70
2022/09/18 15:08:01;;;;;;;5.18;0.70;;;;;;;;;;6314976;28;20113;-71
2022/09/18 15:11:03;;;;;;;1.77;0.70;;;;;;;;;;6313964;28;20060;-72
2022/09/18 15:14:19;;;;;;;4.30;1.00;;;;;;;;;;6313498;27;20043;-74
2022/09/18 15:17:23;;;;;;;3.05;0.80;;;;;;;;;;6317356;28;20156;-74
2022/09/18 15:20:26;;;;;;;1.65;1.00;;;;;;;;;;6317872;28;20047;-71
2022/09/18 15:23:29;;;;;;;;;;;;;;;;;;6318169;28;20052;-74
2022/09/18 15:26:33;;;;;;;2.90;0.80;;;;;;;;;;6320304;27;19923;-74
2022/09/18 15:29:43;;;;;;;3.40;1.08;;;;;;;;;;6319271;28;20063;-75
2022/09/18 15:32:47;;;;;;;1.60;0.65;;;;;;;;;;6319812;28;20327;-72
2022/09/18 15:35:51;;;;;;;3.35;0.77;;;;;;;;;;6315658;28;20048;-72
2022/09/18 15:38:55;;;;;;;3.78;0.90;;;;;;;;;;6321088;28;20064;-72
2022/09/18 15:42:05;;;;;;;3.10;0.90;;;;;;;;;;6317168;28;20068;-72
2022/09/18 15:45:18;;;;;;;1.88;0.80;;;;;;;;;;6316793;28;20044;-75
2022/09/18 15:48:35;;;;;;;1.33;0.80;;;;;;;;;;6318871;28;20064;-74
2022/09/18 15:51:37;;;;;;;2.80;0.80;;;;;;;;;;6316281;28;20052;-72
2022/09/18 15:55:02;;;;;;;2.53;1.02;;;;;;;;;;6320871;28;20052;-73
2022/09/18 15:58:05;;;;;;;5.80;1.08;;;;;;;;;;6315991;28;20057;-73
2022/09/18 16:01:14;;;;;;;6.10;0.85;;;;;;;;;;6315833;28;20059;-71
2022/09/18 16:04:19;;;;;;;4.03;0.80;;;;;;;;;;6314188;28;20052;-73
2022/09/18 16:07:22;;;;;;;7.40;1.73;;;;;;;;;;6315775;28;20097;-76
2022/09/18 16:10:42;;;;;;;;;;;;;;;;;;6318585;27;20366;-73
2022/09/18 16:13:45;;;;;;;25.42;2.08;;;;;;;;;;6319157;28;19991;-73
2022/09/18 16:16:53;;;;;;;1.83;1.02;;;;;;;;;;6314269;28;20056;-74
2022/09/18 16:19:55;;;;;;;8.63;1.00;;;;;;;;;;6315007;27;20235;-74
2022/09/18 16:23:12;;;;;;;2.05;0.90;;;;;;;;;;6317875;28;20064;-73
2022/09/18 16:26:23;;;;;;;5.55;1.17;;;;;;;;;;6318692;28;20051;-73
2022/09/18 16:29:26;;;;;;;3.72;0.90;;;;;;;;;;6319039;28;20075;-76
2022/09/18 16:32:27;;;;;;;6.82;1.30;;;;;;;;;;6315703;28;20044;-75
2022/09/18 16:35:29;;;;;;;19.52;1.90;;;;;;;;;;6317436;28;20052;-74
2022/09/18 16:38:31;;;;;;;4.25;0.90;;;;;;;;;;6314243;28;20059;-75
2022/09/18 16:41:34;;;;;;;2.30;0.90;;;;;;;;;;6319602;28;20416;-77
2022/09/18 16:44:38;;;;;;;1.45;0.80;;;;;;;;;;6316032;28;20158;-73
2022/09/18 16:47:45;;;;;;;3.03;0.82;;;;;;;;;;6314785;28;20075;-74
2022/09/18 16:50:47;;;;;;;4.43;0.93;;;;;;;;;;6313683;28;20089;-73
2022/09/18 16:53:49;;;;;;;2.15;0.85;;;;;;;;;;6313334;28;20049;-73
2022/09/18 16:56:53;;;;;;;5.43;0.90;;;;;;;;;;6320518;28;20286;-73
2022/09/18 16:59:58;;;;;;;3.30;1.10;;;;;;;;;;6319018;28;20159;-73
2022/09/18 17:03:00;;;;;;;1.75;1.17;;;;;;;;;;6313410;28;20326;-74
2022/09/18 17:06:01;;;;;;;10.05;1.50;;;;;;;;;;6314746;28;20145;-76
2022/09/18 17:09:03;;;;;;;5.20;1.38;;;;;;;;;;6317360;28;20075;-73
2022/09/18 17:12:05;;;;;;;2.20;1.00;;;;;;;;;;6314034;28;20055;-73
2022/09/18 17:15:09;;;;;;;6.20;1.40;;;;;;;;;;6313777;28;20056;-73
2022/09/18 17:18:11;;;;;;;4.40;1.05;;;;;;;;;;6314795;28;20361;-73
2022/09/18 17:21:12;;;;;;;2.88;0.98;;;;;;;;;;6317304;28;20066;-73
2022/09/18 17:24:16;;;;;;;5.60;1.08;;;;;;;;;;6315901;28;20060;-75
2022/09/18 17:27:17;;;;;;;;;;;;;;;;;;6317184;28;20063;-73
2022/09/18 17:30:21;;;;;;;2.13;0.85;;;;;;;;;;6314383;28;19924;-73
2022/09/18 17:33:22;;;;;;;3.35;1.55;;;;;;;;;;6317210;28;20095;-74
2022/09/18 17:36:24;;;;;;;1.85;0.93;;;;;;;;;;6320825;27;20219;-73
2022/09/18 17:39:25;;;;;;;7.22;1.30;;;;;;;;;;6318447;27;20064;-77
2022/09/18 17:42:27;;;;;;;5.53;1.15;;;;;;;;;;6320013;28;20040;-73
2022/09/18 17:45:32;;;;;;;3.72;1.42;;;;;;;;;;6323500;28;20259;-73
2022/09/18 17:48:33;;;;;;;2.35;1.45;;;;;;;;;;6321564;28;20083;-78
2022/09/18 17:51:35;;;;;;;3.35;1.50;;;;;;;;;;6315532;28;20361;-74
2022/09/18 17:54:38;;;;;;;5.28;1.50;;;;;;;;;;6316104;28;20037;-74
2022/09/18 17:57:39;;;;;;;2.83;1.73;;;;;;;;;;6320468;28;20063;-74
2022/09/18 18:00:43;;;;;;;2.65;1.65;;;;;;;;;;6318514;28;20346;-76
2022/09/18 18:03:47;;;;;;;5.07;1.63;;;;;;;;;;6316623;28;20053;-77
2022/09/18 18:06:49;;;;;;;6.82;1.92;;;;;;;;;;6320467;28;20044;-75
2022/09/18 18:09:50;;;;;;;7.40;1.90;;;;;;;;;;6323069;28;20052;-74
2022/09/18 18:12:52;;;;;;;5.63;2.13;;;;;;;;;;6321594;28;20056;-74
2022/09/18 18:16:04;;;;;;;9.45;2.30;;;;;;;;;;6319120;28;20040;-75
2022/09/18 18:19:07;;;;;;;3.60;2.08;;;;;;;;;;6319173;28;20052;-71
2022/09/18 18:22:09;;;;;;;6.70;2.40;;;;;;;;;;6322171;28;20334;-66
2022/09/18 18:25:11;;;;;;;15.65;3.42;;;;;;;;;;6323160;28;20055;-68
2022/09/18 18:28:12;;;;;;;6.00;2.28;;;;;;;;;;6319968;28;20131;-69
2022/09/18 18:31:16;;;;;;;3.20;2.00;;;;;;;;;;6317969;28;20217;-71